Time;durP1;ratioP1;P1;durP2;ratioP2;P2;SDS_P1;SDS_P2;PMS_P1;PMS_P2;Temp;Humidity;BMP_temperature;BMP_pressure;BME280_temperature;BME280_humidity;BME280_pressure;Samples;Min_cycle;Max_cycle;Signal;HPM_P1;HPM_P2
2023/09/06 00:02:25;;;;;;;0.10;0.10;;;;;;;;;;6224738;23;20443;-87
2023/09/06 00:04:51;;;;;;;0.13;0.13;;;;;;;;;;6199423;23;20063;-88
2023/09/06 00:07:17;;;;;;;0.20;0.20;;;;;;;;;;6201195;23;20324;-87
2023/09/06 00:09:43;;;;;;;0.10;0.10;;;;;;;;;;6200918;23;20469;-88
2023/09/06 00:12:09;;;;;;;0.10;0.10;;;;;;;;;;6200669;23;20095;-87
2023/09/06 00:14:36;;;;;;;0.00;0.00;;;;;;;;;;6201599;23;20042;-87
2023/09/06 00:17:03;;;;;;;0.10;0.10;;;;;;;;;;6201021;23;20015;-87
2023/09/06 00:19:29;;;;;;;0.20;0.20;;;;;;;;;;6200927;23;20020;-87
2023/09/06 00:21:55;;;;;;;0.10;0.10;;;;;;;;;;6199550;23;20020;-88
2023/09/06 00:24:21;;;;;;;0.10;0.10;;;;;;;;;;6201844;23;20027;-86
2023/09/06 00:26:47;;;;;;;16.90;6.93;;;;;;;;;;6202064;23;20035;-87
2023/09/06 00:29:14;;;;;;;0.20;0.20;;;;;;;;;;6201378;23;20012;-86
2023/09/06 00:31:40;;;;;;;0.20;0.20;;;;;;;;;;6199703;23;20016;-87
2023/09/06 00:34:06;;;;;;;0.20;0.20;;;;;;;;;;6199776;23;20023;-87
2023/09/06 00:36:33;;;;;;;0.10;0.10;;;;;;;;;;6227056;23;20338;-87
2023/09/06 00:39:00;;;;;;;0.30;0.30;;;;;;;;;;6226614;22;20091;-87
2023/09/06 00:41:28;;;;;;;1.85;1.75;;;;;;;;;;6201023;23;20098;-86
2023/09/06 00:43:55;;;;;;;0.20;0.20;;;;;;;;;;6201291;23;20051;-86
2023/09/06 00:46:21;;;;;;;0.20;0.20;;;;;;;;;;6200884;23;20063;-86
2023/09/06 00:48:50;;;;;;;0.30;0.30;;;;;;;;;;6176812;23;20016;-86
2023/09/06 00:51:21;;;;;;;0.10;0.10;;;;;;;;;;6200335;23;20016;-86
2023/09/06 00:53:49;;;;;;;0.22;0.22;;;;;;;;;;6200725;23;20522;-86
2023/09/06 00:56:17;;;;;;;0.10;0.10;;;;;;;;;;6177089;23;20016;-86
2023/09/06 00:58:43;;;;;;;0.10;0.10;;;;;;;;;;6201046;23;20018;-86
2023/09/06 01:01:11;;;;;;;0.17;0.17;;;;;;;;;;6201229;23;20012;-86
2023/09/06 01:03:40;;;;;;;0.10;0.10;;;;;;;;;;6200679;23;20027;-87
2023/09/06 01:06:09;;;;;;;0.00;0.00;;;;;;;;;;6199882;23;20443;-86
2023/09/06 01:08:39;;;;;;;0.20;0.20;;;;;;;;;;6200737;23;20016;-87
2023/09/06 01:11:21;;;;;;;0.20;0.20;;;;;;;;;;6200204;23;20016;-87
2023/09/06 01:13:51;;;;;;;0.00;0.00;;;;;;;;;;6224559;23;20080;-88
2023/09/06 01:16:24;;;;;;;0.20;0.20;;;;;;;;;;6200464;23;20028;-88
2023/09/06 01:18:51;;;;;;;0.20;0.20;;;;;;;;;;6201078;23;20065;-86
2023/09/06 01:21:19;;;;;;;0.22;0.22;;;;;;;;;;6226180;23;20023;-86
2023/09/06 01:23:46;;;;;;;0.17;0.17;;;;;;;;;;6201550;23;20386;-86
2023/09/06 01:26:16;;;;;;;0.10;0.10;;;;;;;;;;6227043;23;20016;-86
2023/09/06 01:28:42;;;;;;;0.00;0.00;;;;;;;;;;6202116;23;20019;-86
2023/09/06 01:31:08;;;;;;;0.20;0.20;;;;;;;;;;6202429;23;20039;-86
2023/09/06 01:33:35;;;;;;;0.10;0.10;;;;;;;;;;6203274;23;20062;-86
2023/09/06 01:36:01;;;;;;;0.10;0.10;;;;;;;;;;6228119;23;20008;-86
2023/09/06 01:38:32;;;;;;;0.20;0.20;;;;;;;;;;6228062;23;20020;-86
2023/09/06 01:41:03;;;;;;;0.10;0.10;;;;;;;;;;6203666;23;20016;-86
2023/09/06 01:43:31;;;;;;;0.00;0.00;;;;;;;;;;6201720;23;20016;-85
2023/09/06 01:45:57;;;;;;;0.13;0.13;;;;;;;;;;6202508;23;20336;-86
2023/09/06 01:48:23;;;;;;;0.10;0.10;;;;;;;;;;6227842;23;20019;-86
2023/09/06 01:50:49;;;;;;;0.10;0.10;;;;;;;;;;6202392;23;20016;-87
2023/09/06 01:53:16;;;;;;;0.20;0.20;;;;;;;;;;6202579;23;20012;-86
2023/09/06 01:55:45;;;;;;;0.00;0.00;;;;;;;;;;6228759;23;20048;-85
2023/09/06 01:58:14;;;;;;;0.20;0.20;;;;;;;;;;6201482;23;20344;-86
2023/09/06 02:00:40;;;;;;;0.10;0.10;;;;;;;;;;6227003;23;20089;-87
2023/09/06 02:03:07;;;;;;;0.10;0.10;;;;;;;;;;6202237;23;20016;-87
2023/09/06 02:05:34;;;;;;;0.10;0.10;;;;;;;;;;6177110;23;20020;-86
2023/09/06 02:08:01;;;;;;;0.13;0.13;;;;;;;;;;6201043;23;20019;-86
2023/09/06 02:10:27;;;;;;;0.30;0.30;;;;;;;;;;6201752;23;20022;-86
2023/09/06 02:12:56;;;;;;;0.20;0.20;;;;;;;;;;6202019;23;20000;-85
2023/09/06 02:15:25;;;;;;;0.20;0.20;;;;;;;;;;6226437;23;20020;-86
2023/09/06 02:17:52;;;;;;;0.10;0.10;;;;;;;;;;6226546;23;20027;-85
2023/09/06 02:20:20;;;;;;;0.20;0.20;;;;;;;;;;6225829;23;20047;-87
2023/09/06 02:22:48;;;;;;;0.10;0.10;;;;;;;;;;6200994;23;20023;-85
2023/09/06 02:25:15;;;;;;;0.22;0.22;;;;;;;;;;6201917;23;20108;-86
2023/09/06 02:27:41;;;;;;;0.17;0.17;;;;;;;;;;6201823;23;20103;-86
2023/09/06 02:30:08;;;;;;;0.10;0.10;;;;;;;;;;6201622;23;20078;-85
2023/09/06 02:32:34;;;;;;;0.10;0.10;;;;;;;;;;6200928;23;20012;-86
2023/09/06 02:35:01;;;;;;;0.13;0.13;;;;;;;;;;6201536;23;20047;-86
2023/09/06 02:37:27;;;;;;;0.20;0.20;;;;;;;;;;6226909;23;20020;-86
2023/09/06 02:39:53;;;;;;;0.20;0.20;;;;;;;;;;6201347;23;20016;-87
2023/09/06 02:42:20;;;;;;;0.20;0.20;;;;;;;;;;6201012;23;20016;-87
2023/09/06 02:44:46;;;;;;;0.20;0.20;;;;;;;;;;6176440;23;20020;-86
2023/09/06 02:47:15;;;;;;;0.10;0.10;;;;;;;;;;6201492;23;20023;-87
2023/09/06 02:49:43;;;;;;;0.10;0.10;;;;;;;;;;6201433;23;20016;-87
2023/09/06 02:52:20;;;;;;;0.13;0.13;;;;;;;;;;6200220;23;19993;-87
2023/09/06 02:54:50;;;;;;;0.10;0.10;;;;;;;;;;6225956;23;20007;-87
2023/09/06 02:57:18;;;;;;;0.30;0.30;;;;;;;;;;6200882;23;20016;-86
2023/09/06 02:59:44;;;;;;;0.10;0.10;;;;;;;;;;6201762;23;20020;-85
2023/09/06 03:02:12;;;;;;;0.20;0.20;;;;;;;;;;6200102;23;20100;-87
2023/09/06 03:04:40;;;;;;;0.30;0.30;;;;;;;;;;6200200;23;20016;-88
2023/09/06 03:07:10;;;;;;;0.25;0.25;;;;;;;;;;6200906;23;20439;-86
2023/09/06 03:09:38;;;;;;;0.30;0.30;;;;;;;;;;6201765;23;20074;-87
2023/09/06 03:12:11;;;;;;;0.25;0.25;;;;;;;;;;6226911;23;20395;-87
2023/09/06 03:14:44;;;;;;;0.30;0.30;;;;;;;;;;6227150;23;20073;-86
2023/09/06 03:17:11;;;;;;;0.22;0.22;;;;;;;;;;6226604;23;20015;-86
2023/09/06 03:19:41;;;;;;;0.13;0.13;;;;;;;;;;6177643;23;20020;-87
2023/09/06 03:22:09;;;;;;;0.20;0.20;;;;;;;;;;6202271;23;20039;-86
2023/09/06 03:24:43;;;;;;;0.08;0.08;;;;;;;;;;6202458;23;20016;-85
2023/09/06 03:27:15;;;;;;;0.20;0.20;;;;;;;;;;6226522;23;20344;-85
2023/09/06 03:29:51;;;;;;;0.20;0.20;;;;;;;;;;6203290;23;20012;-85
2023/09/06 03:32:18;;;;;;;0.10;0.10;;;;;;;;;;6225219;23;20024;-86
2023/09/06 03:34:45;;;;;;;0.10;0.10;;;;;;;;;;6199949;23;20099;-86
2023/09/06 03:37:12;;;;;;;0.15;0.15;;;;;;;;;;6225896;23;20099;-86
2023/09/06 03:39:41;;;;;;;0.30;0.30;;;;;;;;;;6200434;23;20031;-86
2023/09/06 03:42:14;;;;;;;0.20;0.20;;;;;;;;;;6176686;23;20023;-86
2023/09/06 03:44:42;;;;;;;0.10;0.10;;;;;;;;;;6201242;23;20027;-86
2023/09/06 03:47:19;;;;;;;0.10;0.10;;;;;;;;;;6201414;23;20104;-86
2023/09/06 03:49:45;;;;;;;0.20;0.20;;;;;;;;;;6200813;23;20017;-87
2023/09/06 03:52:12;;;;;;;0.17;0.17;;;;;;;;;;6224896;23;20027;-87
2023/09/06 03:54:38;;;;;;;0.40;0.40;;;;;;;;;;6226232;23;20019;-87
2023/09/06 03:57:12;;;;;;;0.20;0.20;;;;;;;;;;6227513;23;20012;-88
2023/09/06 03:59:40;;;;;;;0.20;0.20;;;;;;;;;;6200307;23;20000;-87
2023/09/06 04:02:08;;;;;;;0.20;0.20;;;;;;;;;;6224841;23;20016;-87
2023/09/06 04:04:34;;;;;;;0.10;0.10;;;;;;;;;;6200065;23;20020;-87
2023/09/06 04:07:01;;;;;;;0.20;0.20;;;;;;;;;;6199415;23;20012;-86
2023/09/06 04:09:37;;;;;;;0.10;0.10;;;;;;;;;;6225673;23;20016;-86
2023/09/06 04:12:08;;;;;;;0.10;0.10;;;;;;;;;;6225122;23;20087;-86
2023/09/06 04:14:38;;;;;;;0.30;0.30;;;;;;;;;;6200102;23;20090;-86
2023/09/06 04:17:07;;;;;;;0.28;0.28;;;;;;;;;;6200208;23;20020;-86
2023/09/06 04:19:34;;;;;;;0.20;0.20;;;;;;;;;;6199997;23;20020;-87
2023/09/06 04:22:01;;;;;;;0.20;0.20;;;;;;;;;;6199957;23;20023;-87
2023/09/06 04:24:29;;;;;;;0.00;0.00;;;;;;;;;;6200313;23;20024;-86
2023/09/06 04:26:55;;;;;;;0.10;0.10;;;;;;;;;;6199132;23;20062;-87
2023/09/06 04:29:21;;;;;;;0.30;0.30;;;;;;;;;;6199437;23;20054;-86
2023/09/06 04:31:49;;;;;;;0.20;0.20;;;;;;;;;;6199271;23;20023;-87
2023/09/06 04:34:16;;;;;;;0.10;0.10;;;;;;;;;;6198913;23;20052;-88
2023/09/06 04:36:43;;;;;;;0.20;0.20;;;;;;;;;;6200210;23;20016;-87
2023/09/06 04:39:10;;;;;;;0.20;0.20;;;;;;;;;;6199352;23;20070;-86
2023/09/06 04:41:36;;;;;;;0.20;0.20;;;;;;;;;;6199901;23;20055;-87
2023/09/06 04:44:02;;;;;;;0.22;0.22;;;;;;;;;;6200280;23;20016;-87
2023/09/06 04:46:28;;;;;;;0.10;0.10;;;;;;;;;;6200314;23;20006;-87
2023/09/06 04:48:55;;;;;;;0.20;0.20;;;;;;;;;;6225437;23;20340;-87
2023/09/06 04:51:21;;;;;;;0.10;0.10;;;;;;;;;;6250520;23;20389;-86
2023/09/06 04:53:48;;;;;;;0.20;0.20;;;;;;;;;;6199719;23;20043;-87
2023/09/06 04:56:16;;;;;;;0.20;0.20;;;;;;;;;;6200931;23;20100;-87
2023/09/06 04:58:42;;;;;;;0.10;0.10;;;;;;;;;;6202629;23;20012;-87
2023/09/06 05:01:10;;;;;;;0.10;0.10;;;;;;;;;;6202353;23;20146;-87
2023/09/06 05:03:37;;;;;;;0.10;0.10;;;;;;;;;;6227364;23;20012;-88
2023/09/06 05:06:03;;;;;;;0.30;0.30;;;;;;;;;;6227616;23;20096;-87
2023/09/06 05:08:30;;;;;;;0.20;0.20;;;;;;;;;;6201937;23;20044;-86
2023/09/06 05:10:56;;;;;;;0.20;0.20;;;;;;;;;;6201166;23;20031;-86
2023/09/06 05:13:23;;;;;;;0.30;0.30;;;;;;;;;;6176791;23;20082;-85
2023/09/06 05:15:49;;;;;;;0.20;0.20;;;;;;;;;;6201427;23;20024;-87
2023/09/06 05:18:16;;;;;;;0.20;0.20;;;;;;;;;;6201521;23;20023;-87
2023/09/06 05:20:42;;;;;;;0.30;0.30;;;;;;;;;;6202368;23;20020;-86
2023/09/06 05:23:10;;;;;;;0.20;0.20;;;;;;;;;;6201603;23;20020;-87
2023/09/06 05:25:36;;;;;;;0.20;0.20;;;;;;;;;;6201753;23;20071;-87
2023/09/06 05:28:08;;;;;;;0.20;0.20;;;;;;;;;;6201842;23;20043;-87
2023/09/06 05:30:37;;;;;;;0.20;0.20;;;;;;;;;;6201881;23;20040;-87
2023/09/06 05:33:03;;;;;;;0.10;0.10;;;;;;;;;;6200849;23;20008;-87
2023/09/06 05:35:29;;;;;;;0.30;0.30;;;;;;;;;;6201341;23;20117;-88
2023/09/06 05:37:55;;;;;;;0.20;0.20;;;;;;;;;;6202420;23;20024;-87
2023/09/06 05:40:26;;;;;;;0.20;0.20;;;;;;;;;;6202968;23;20026;-88
2023/09/06 05:42:52;;;;;;;0.20;0.20;;;;;;;;;;6202483;23;20351;-88
2023/09/06 05:45:21;;;;;;;0.20;0.20;;;;;;;;;;6202663;23;20020;-87
2023/09/06 05:47:48;;;;;;;0.20;0.20;;;;;;;;;;6202899;23;20011;-87
2023/09/06 05:50:14;;;;;;;0.20;0.20;;;;;;;;;;6202652;23;20003;-87
2023/09/06 05:52:40;;;;;;;0.13;0.13;;;;;;;;;;6202431;23;20012;-87
2023/09/06 05:55:07;;;;;;;0.13;0.13;;;;;;;;;;6201157;23;20020;-87
2023/09/06 05:57:33;;;;;;;0.30;0.30;;;;;;;;;;6201416;23;20087;-88
2023/09/06 06:00:00;;;;;;;0.10;0.10;;;;;;;;;;6201858;23;20030;-88
2023/09/06 06:02:26;;;;;;;0.20;0.20;;;;;;;;;;6203375;23;20015;-87
2023/09/06 06:04:52;;;;;;;0.20;0.20;;;;;;;;;;6202867;23;20024;-87
2023/09/06 06:07:18;;;;;;;0.10;0.10;;;;;;;;;;6203033;23;20020;-88
2023/09/06 06:09:44;;;;;;;0.20;0.20;;;;;;;;;;6202017;23;20016;-87
2023/09/06 06:12:11;;;;;;;0.30;0.30;;;;;;;;;;6227816;23;20039;-87
2023/09/06 06:14:37;;;;;;;0.10;0.10;;;;;;;;;;6202524;23;20023;-87
2023/09/06 06:17:12;;;;;;;0.10;0.10;;;;;;;;;;6202291;23;20012;-88
2023/09/06 06:19:38;;;;;;;0.10;0.10;;;;;;;;;;6202673;23;20024;-88
2023/09/06 06:22:04;;;;;;;0.20;0.20;;;;;;;;;;6202382;23;20103;-88
2023/09/06 06:24:31;;;;;;;0.20;0.20;;;;;;;;;;6203319;23;20388;-87
2023/09/06 06:26:58;;;;;;;0.10;0.10;;;;;;;;;;6204155;23;20012;-88
2023/09/06 06:29:24;;;;;;;0.30;0.30;;;;;;;;;;6228705;23;20023;-87
2023/09/06 06:31:50;;;;;;;0.20;0.20;;;;;;;;;;6202779;23;20019;-88
2023/09/06 06:34:18;;;;;;;0.10;0.10;;;;;;;;;;6202956;22;20027;-87
2023/09/06 06:36:45;;;;;;;0.20;0.20;;;;;;;;;;6201396;23;20016;-88
2023/09/06 06:39:12;;;;;;;0.20;0.20;;;;;;;;;;6227812;23;20023;-88
2023/09/06 06:41:38;;;;;;;0.20;0.20;;;;;;;;;;6202573;23;20043;-88
2023/09/06 06:44:05;;;;;;;0.13;0.13;;;;;;;;;;6204733;23;20039;-89
2023/09/06 06:46:38;;;;;;;0.20;0.20;;;;;;;;;;6204525;23;20012;-91
2023/09/06 06:49:07;;;;;;;0.10;0.10;;;;;;;;;;6230728;23;20527;-88
2023/09/06 06:51:38;;;;;;;0.22;0.22;;;;;;;;;;6205685;23;20027;-92
2023/09/06 06:54:08;;;;;;;0.10;0.10;;;;;;;;;;6205627;23;20447;-89
2023/09/06 06:56:35;;;;;;;0.10;0.10;;;;;;;;;;6203920;23;20004;-89
2023/09/06 06:59:02;;;;;;;0.10;0.10;;;;;;;;;;6205100;23;20016;-89
2023/09/06 07:01:28;;;;;;;0.10;0.10;;;;;;;;;;6205640;23;20031;-90
2023/09/06 07:03:55;;;;;;;0.10;0.10;;;;;;;;;;6205428;23;20533;-89
2023/09/06 07:06:24;;;;;;;0.13;0.13;;;;;;;;;;6230710;23;20020;-88
2023/09/06 07:08:51;;;;;;;0.20;0.20;;;;;;;;;;6204060;23;20020;-89
2023/09/06 07:11:18;;;;;;;0.10;0.10;;;;;;;;;;6227713;23;20550;-90
2023/09/06 07:13:46;;;;;;;0.30;0.30;;;;;;;;;;6204744;23;20051;-91
2023/09/06 07:16:12;;;;;;;0.10;0.10;;;;;;;;;;6204254;23;20047;-91
2023/09/06 07:18:38;;;;;;;0.05;0.05;;;;;;;;;;6203539;22;20008;-90
2023/09/06 07:21:04;;;;;;;0.15;0.15;;;;;;;;;;6228390;23;20047;-88
2023/09/06 07:23:30;;;;;;;0.10;0.10;;;;;;;;;;6178159;23;20070;-90
2023/09/06 07:25:56;;;;;;;0.10;0.10;;;;;;;;;;6203412;23;20020;-89
2023/09/06 07:28:31;;;;;;;0.10;0.10;;;;;;;;;;6202982;23;20096;-89
2023/09/06 07:30:57;;;;;;;0.00;0.00;;;;;;;;;;6203409;23;20142;-90
2023/09/06 07:33:23;;;;;;;0.20;0.20;;;;;;;;;;6203964;23;20016;-88
2023/09/06 07:35:49;;;;;;;0.30;0.30;;;;;;;;;;6203941;23;20020;-89
2023/09/06 07:38:16;;;;;;;0.20;0.20;;;;;;;;;;6228482;23;20020;-87
2023/09/06 07:40:42;;;;;;;0.10;0.10;;;;;;;;;;6201420;23;20051;-87
2023/09/06 07:43:08;;;;;;;0.10;0.10;;;;;;;;;;6201790;23;20321;-86
2023/09/06 07:45:37;;;;;;;0.03;0.03;;;;;;;;;;6201730;23;20522;-91
2023/09/06 07:48:04;;;;;;;0.10;0.10;;;;;;;;;;6204222;23;20031;-90
2023/09/06 07:50:30;;;;;;;0.20;0.20;;;;;;;;;;6203720;23;20028;-89
2023/09/06 07:52:57;;;;;;;0.20;0.20;;;;;;;;;;6203061;23;20008;-88
2023/09/06 07:55:23;;;;;;;0.10;0.10;;;;;;;;;;6203483;23;20562;-88
2023/09/06 07:57:48;;;;;;;0.10;0.10;;;;;;;;;;6227306;23;20088;-89
2023/09/06 08:00:15;;;;;;;0.15;0.15;;;;;;;;;;6202649;23;20019;-91
2023/09/06 08:02:41;;;;;;;0.10;0.10;;;;;;;;;;6201079;23;20016;-88
2023/09/06 08:05:08;;;;;;;0.17;0.17;;;;;;;;;;6200294;23;20020;-88
2023/09/06 08:07:35;;;;;;;0.08;0.08;;;;;;;;;;6226838;23;20344;-89
2023/09/06 08:10:01;;;;;;;0.10;0.10;;;;;;;;;;6225847;23;20016;-89
2023/09/06 08:12:27;;;;;;;0.30;0.30;;;;;;;;;;6201854;23;20019;-90
2023/09/06 08:14:53;;;;;;;0.20;0.20;;;;;;;;;;6202876;23;20020;-88
2023/09/06 08:17:19;;;;;;;0.00;0.00;;;;;;;;;;6201884;23;20526;-89
2023/09/06 08:19:45;;;;;;;0.20;0.20;;;;;;;;;;6201511;23;20076;-86
2023/09/06 08:22:11;;;;;;;0.10;0.10;;;;;;;;;;6201434;23;20024;-88
2023/09/06 08:24:37;;;;;;;0.20;0.20;;;;;;;;;;6226269;23;20027;-88
2023/09/06 08:27:05;;;;;;;0.20;0.20;;;;;;;;;;6227096;23;20606;-87
2023/09/06 08:29:31;;;;;;;0.08;0.08;;;;;;;;;;6201439;23;20347;-88
2023/09/06 08:31:57;;;;;;;0.20;0.20;;;;;;;;;;6201725;23;20031;-88
2023/09/06 08:34:24;;;;;;;0.10;0.10;;;;;;;;;;6202016;23;20016;-88
2023/09/06 08:36:51;;;;;;;0.13;0.13;;;;;;;;;;6203757;23;20044;-89
2023/09/06 08:39:17;;;;;;;0.10;0.10;;;;;;;;;;6202368;23;20046;-88
2023/09/06 08:41:48;;;;;;;0.10;0.10;;;;;;;;;;6202078;23;20020;-88
2023/09/06 08:44:17;;;;;;;0.20;0.20;;;;;;;;;;6203057;22;20004;-91
2023/09/06 08:46:45;;;;;;;0.20;0.20;;;;;;;;;;6203203;23;20008;-90
2023/09/06 08:49:12;;;;;;;0.10;0.10;;;;;;;;;;6202426;22;20020;-89
2023/09/06 08:51:39;;;;;;;0.10;0.10;;;;;;;;;;6202374;23;20020;-89
2023/09/06 08:54:06;;;;;;;0.10;0.10;;;;;;;;;;6203080;23;20012;-91
2023/09/06 08:56:32;;;;;;;0.03;0.03;;;;;;;;;;6228492;23;20542;-89
2023/09/06 08:58:59;;;;;;;0.22;0.22;;;;;;;;;;6206064;23;20094;-93
2023/09/06 09:01:25;;;;;;;0.10;0.10;;;;;;;;;;6205270;23;19996;-89
2023/09/06 09:03:52;;;;;;;0.17;0.17;;;;;;;;;;6202933;23;20016;-87
2023/09/06 09:06:18;;;;;;;0.08;0.08;;;;;;;;;;6201859;23;20016;-87
2023/09/06 09:08:44;;;;;;;0.10;0.10;;;;;;;;;;6202206;23;20019;-89
2023/09/06 09:11:10;;;;;;;0.10;0.10;;;;;;;;;;6204627;23;20023;-89
2023/09/06 09:13:36;;;;;;;0.20;0.20;;;;;;;;;;6229110;23;20024;-89
2023/09/06 09:16:12;;;;;;;0.10;0.10;;;;;;;;;;6228602;23;20071;-90
2023/09/06 09:18:38;;;;;;;0.10;0.10;;;;;;;;;;6202619;23;20031;-89
2023/09/06 09:21:04;;;;;;;0.08;0.08;;;;;;;;;;6202080;23;20004;-87
2023/09/06 09:23:31;;;;;;;0.20;0.20;;;;;;;;;;6202737;23;20047;-87
2023/09/06 09:25:57;;;;;;;0.17;0.17;;;;;;;;;;6203001;23;20447;-88
2023/09/06 09:28:23;;;;;;;0.10;0.10;;;;;;;;;;6201103;23;20024;-87
2023/09/06 09:30:51;;;;;;;0.10;0.10;;;;;;;;;;6201031;23;20016;-88
2023/09/06 09:33:17;;;;;;;0.10;0.10;;;;;;;;;;6202516;23;20067;-90
2023/09/06 09:35:44;;;;;;;0.10;0.10;;;;;;;;;;6201842;23;20073;-89
2023/09/06 09:38:11;;;;;;;0.10;0.10;;;;;;;;;;6202101;23;20027;-88
2023/09/06 09:40:37;;;;;;;0.13;0.13;;;;;;;;;;6227050;22;20459;-89
2023/09/06 09:43:04;;;;;;;0.10;0.10;;;;;;;;;;6203024;23;20275;-89
2023/09/06 09:45:38;;;;;;;0.10;0.10;;;;;;;;;;6229211;23;20095;-89
2023/09/06 09:48:05;;;;;;;0.35;0.35;;;;;;;;;;6203669;23;20099;-89
2023/09/06 09:50:33;;;;;;;0.10;0.10;;;;;;;;;;6203353;23;20044;-88
2023/09/06 09:53:03;;;;;;;0.00;0.00;;;;;;;;;;6176934;23;20030;-90
2023/09/06 09:55:34;;;;;;;0.15;0.15;;;;;;;;;;6205169;23;20042;-91
2023/09/06 09:58:05;;;;;;;0.10;0.10;;;;;;;;;;6205252;23;20020;-90
2023/09/06 10:00:32;;;;;;;0.17;0.17;;;;;;;;;;6206314;23;20056;-92
2023/09/06 10:03:00;;;;;;;0.20;0.20;;;;;;;;;;6205414;23;20016;-92
2023/09/06 10:05:26;;;;;;;0.10;0.10;;;;;;;;;;6206395;23;20338;-92
2023/09/06 10:07:54;;;;;;;0.17;0.17;;;;;;;;;;6205649;23;20011;-91
2023/09/06 10:10:21;;;;;;;0.10;0.10;;;;;;;;;;6205470;23;20143;-90
2023/09/06 10:12:49;;;;;;;0.10;0.10;;;;;;;;;;6205596;23;20016;-92
2023/09/06 10:15:15;;;;;;;0.30;0.30;;;;;;;;;;6230590;23;20027;-89
2023/09/06 10:17:45;;;;;;;0.10;0.10;;;;;;;;;;6202558;23;20004;-92
2023/09/06 10:20:14;;;;;;;0.10;0.10;;;;;;;;;;6204144;23;20024;-90
2023/09/06 10:22:46;;;;;;;0.08;0.08;;;;;;;;;;6202955;23;20047;-90
2023/09/06 10:25:14;;;;;;;0.10;0.10;;;;;;;;;;6203541;23;20398;-90
2023/09/06 10:27:50;;;;;;;0.10;0.10;;;;;;;;;;6202310;23;20516;-90
2023/09/06 10:30:21;;;;;;;0.03;0.03;;;;;;;;;;6202265;23;20016;-90
2023/09/06 10:32:47;;;;;;;0.00;0.00;;;;;;;;;;6227288;23;20031;-91
2023/09/06 10:35:24;;;;;;;0.25;0.25;;;;;;;;;;6203216;23;20054;-90
2023/09/06 10:38:07;;;;;;;0.10;0.10;;;;;;;;;;6203140;23;20020;-90
2023/09/06 10:40:49;;;;;;;0.10;0.10;;;;;;;;;;6202479;23;20464;-91
2023/09/06 10:43:15;;;;;;;0.10;0.10;;;;;;;;;;6202480;23;20042;-90
2023/09/06 10:45:54;;;;;;;0.10;0.10;;;;;;;;;;6202484;23;20016;-90
2023/09/06 10:48:20;;;;;;;0.10;0.10;;;;;;;;;;6201640;23;20023;-90
2023/09/06 10:51:06;;;;;;;0.20;0.20;;;;;;;;;;6203158;23;20047;-91
2023/09/06 10:53:33;;;;;;;0.30;0.30;;;;;;;;;;6201057;23;20028;-90
2023/09/06 10:56:01;;;;;;;0.10;0.10;;;;;;;;;;6203198;23;20027;-89
2023/09/06 10:58:31;;;;;;;0.00;0.00;;;;;;;;;;6203077;23;20639;-91
2023/09/06 11:01:12;;;;;;;0.10;0.10;;;;;;;;;;6228435;23;20050;-90
2023/09/06 11:03:38;;;;;;;0.10;0.10;;;;;;;;;;6203995;23;20023;-90
2023/09/06 11:06:04;;;;;;;0.10;0.10;;;;;;;;;;6228188;22;20027;-90
2023/09/06 11:08:31;;;;;;;0.13;0.13;;;;;;;;;;6202762;22;20046;-90
2023/09/06 11:11:01;;;;;;;0.10;0.10;;;;;;;;;;6202186;23;20015;-89
2023/09/06 11:13:30;;;;;;;0.08;0.08;;;;;;;;;;6177133;23;20066;-91
2023/09/06 11:15:56;;;;;;;0.10;0.10;;;;;;;;;;6204158;23;20103;-90
2023/09/06 11:18:23;;;;;;;0.00;0.00;;;;;;;;;;6202649;23;20019;-90
2023/09/06 11:20:49;;;;;;;0.05;0.05;;;;;;;;;;6201589;23;20071;-90
2023/09/06 11:23:19;;;;;;;0.00;0.00;;;;;;;;;;6201695;23;20020;-89
2023/09/06 11:25:45;;;;;;;0.20;0.20;;;;;;;;;;6202839;23;20030;-89
2023/09/06 11:28:18;;;;;;;0.20;0.20;;;;;;;;;;6202464;23;20023;-89
2023/09/06 11:30:48;;;;;;;0.00;0.00;;;;;;;;;;6177265;23;20027;-89
2023/09/06 11:33:16;;;;;;;0.15;0.15;;;;;;;;;;6201551;23;20016;-90
2023/09/06 11:35:48;;;;;;;0.10;0.10;;;;;;;;;;6200902;23;20020;-89
2023/09/06 11:38:16;;;;;;;0.10;0.10;;;;;;;;;;6200526;23;20020;-88
2023/09/06 11:40:43;;;;;;;0.10;0.10;;;;;;;;;;6201997;23;20011;-89
2023/09/06 11:43:13;;;;;;;0.00;0.00;;;;;;;;;;6226858;23;20020;-89
2023/09/06 11:45:43;;;;;;;0.17;0.17;;;;;;;;;;6203105;23;20056;-89
2023/09/06 11:48:09;;;;;;;0.20;0.20;;;;;;;;;;6200554;23;20022;-88
2023/09/06 11:50:42;;;;;;;0.13;0.13;;;;;;;;;;6200073;23;20019;-88
2023/09/06 11:53:13;;;;;;;0.00;0.00;;;;;;;;;;6200324;23;20095;-87
2023/09/06 11:55:42;;;;;;;0.10;0.10;;;;;;;;;;6227734;23;20023;-89
2023/09/06 11:58:18;;;;;;;0.10;0.10;;;;;;;;;;6200946;23;20412;-89
2023/09/06 12:00:50;;;;;;;0.00;0.00;;;;;;;;;;6201402;23;20024;-90
2023/09/06 12:03:16;;;;;;;0.20;0.20;;;;;;;;;;6201111;23;20020;-90
2023/09/06 12:05:45;;;;;;;0.10;0.10;;;;;;;;;;6200869;23;20475;-90
2023/09/06 12:08:15;;;;;;;0.10;0.10;;;;;;;;;;6200114;23;20335;-89
2023/09/06 12:10:49;;;;;;;0.00;0.00;;;;;;;;;;6200957;23;20051;-88
2023/09/06 12:13:15;;;;;;;0.10;0.10;;;;;;;;;;6225177;23;20039;-88
2023/09/06 12:15:43;;;;;;;0.10;0.10;;;;;;;;;;6200335;23;20095;-88
2023/09/06 12:18:09;;;;;;;0.00;0.00;;;;;;;;;;6226270;23;20455;-89
2023/09/06 12:20:35;;;;;;;0.10;0.10;;;;;;;;;;6226832;23;20022;-89
2023/09/06 12:23:01;;;;;;;0.10;0.10;;;;;;;;;;6200711;23;20030;-88
2023/09/06 12:25:27;;;;;;;0.10;0.10;;;;;;;;;;6201086;23;20022;-89
2023/09/06 12:27:54;;;;;;;0.10;0.10;;;;;;;;;;6200197;23;20012;-89
2023/09/06 12:30:22;;;;;;;0.10;0.10;;;;;;;;;;6200329;23;20020;-89
2023/09/06 12:32:48;;;;;;;0.10;0.10;;;;;;;;;;6199947;23;20016;-89
2023/09/06 12:35:14;;;;;;;0.00;0.00;;;;;;;;;;6226362;23;20316;-88
2023/09/06 12:37:41;;;;;;;0.10;0.10;;;;;;;;;;6225385;23;20012;-89
2023/09/06 12:40:13;;;;;;;0.00;0.00;;;;;;;;;;6200135;23;20347;-88
2023/09/06 12:42:46;;;;;;;0.10;0.10;;;;;;;;;;6200363;23;20016;-89
2023/09/06 12:45:26;;;;;;;0.10;0.10;;;;;;;;;;6199097;23;20067;-86
2023/09/06 12:47:52;;;;;;;0.10;0.10;;;;;;;;;;6199707;23;20020;-86
2023/09/06 12:50:20;;;;;;;0.00;0.00;;;;;;;;;;6198799;23;20613;-87
2023/09/06 12:52:46;;;;;;;0.10;0.10;;;;;;;;;;6198831;23;20042;-88
2023/09/06 12:55:12;;;;;;;0.00;0.00;;;;;;;;;;6200010;23;20023;-88
2023/09/06 12:57:38;;;;;;;0.00;0.00;;;;;;;;;;6199162;23;20027;-88
2023/09/06 13:00:05;;;;;;;0.00;0.00;;;;;;;;;;6200032;23;20039;-88
2023/09/06 13:02:34;;;;;;;0.05;0.05;;;;;;;;;;6199626;23;20023;-88
2023/09/06 13:05:04;;;;;;;0.00;0.00;;;;;;;;;;6200300;23;20016;-89
2023/09/06 13:07:30;;;;;;;0.10;0.10;;;;;;;;;;6200700;23;20099;-88
2023/09/06 13:09:57;;;;;;;0.10;0.10;;;;;;;;;;6200681;23;20020;-87
2023/09/06 13:12:23;;;;;;;0.20;0.20;;;;;;;;;;6200997;23;20012;-87
2023/09/06 13:14:49;;;;;;;0.10;0.10;;;;;;;;;;6226132;23;20548;-88
2023/09/06 13:17:15;;;;;;;0.00;0.00;;;;;;;;;;6201430;23;20058;-89
2023/09/06 13:19:42;;;;;;;0.10;0.10;;;;;;;;;;6202449;23;20386;-89
2023/09/06 13:22:08;;;;;;;0.10;0.10;;;;;;;;;;6202164;23;20077;-89
2023/09/06 13:24:34;;;;;;;0.10;0.10;;;;;;;;;;6203180;23;20016;-89
2023/09/06 13:27:00;;;;;;;0.17;0.17;;;;;;;;;;6203692;23;19996;-88
2023/09/06 13:29:27;;;;;;;0.00;0.00;;;;;;;;;;6202774;23;20103;-89
2023/09/06 13:31:53;;;;;;;0.03;0.03;;;;;;;;;;6201350;23;20019;-89
2023/09/06 13:34:20;;;;;;;0.10;0.10;;;;;;;;;;6202432;23;20012;-89
2023/09/06 13:36:46;;;;;;;0.00;0.00;;;;;;;;;;6202282;23;20012;-88
2023/09/06 13:39:13;;;;;;;0.03;0.03;;;;;;;;;;6226245;23;20019;-88
2023/09/06 13:41:41;;;;;;;0.20;0.20;;;;;;;;;;6202626;23;20020;-88
2023/09/06 13:44:07;;;;;;;0.10;0.10;;;;;;;;;;6203541;23;20019;-88
2023/09/06 13:46:33;;;;;;;0.10;0.10;;;;;;;;;;6203216;23;20451;-88
2023/09/06 13:49:00;;;;;;;0.00;0.00;;;;;;;;;;6203909;23;20015;-87
2023/09/06 13:51:26;;;;;;;0.05;0.05;;;;;;;;;;6202090;23;20103;-87
2023/09/06 13:53:52;;;;;;;0.00;0.00;;;;;;;;;;6203046;23;20040;-87
2023/09/06 13:56:19;;;;;;;0.10;0.10;;;;;;;;;;6202660;23;20039;-87
2023/09/06 13:58:45;;;;;;;0.00;0.00;;;;;;;;;;6203008;23;20027;-87
2023/09/06 14:01:11;;;;;;;0.10;0.10;;;;;;;;;;6202224;23;20051;-87
2023/09/06 14:03:39;;;;;;;0.10;0.10;;;;;;;;;;6202062;23;20020;-87
2023/09/06 14:06:05;;;;;;;0.00;0.00;;;;;;;;;;6202170;23;20027;-87
2023/09/06 14:08:31;;;;;;;0.00;0.00;;;;;;;;;;6227409;23;20023;-87
2023/09/06 14:10:58;;;;;;;0.00;0.00;;;;;;;;;;6226668;23;20012;-87
2023/09/06 14:13:24;;;;;;;0.10;0.10;;;;;;;;;;6201610;23;20043;-87
2023/09/06 14:15:50;;;;;;;0.00;0.00;;;;;;;;;;6201404;23;20016;-87
2023/09/06 14:18:18;;;;;;;0.10;0.10;;;;;;;;;;6201431;23;20020;-87
2023/09/06 14:20:44;;;;;;;0.10;0.10;;;;;;;;;;6201810;23;20076;-87
2023/09/06 14:23:11;;;;;;;0.10;0.10;;;;;;;;;;6201992;23;20443;-89
2023/09/06 14:25:37;;;;;;;0.13;0.13;;;;;;;;;;6202563;23;20051;-87
2023/09/06 14:28:03;;;;;;;0.10;0.10;;;;;;;;;;6200328;23;20083;-88
2023/09/06 14:30:30;;;;;;;0.10;0.10;;;;;;;;;;6201940;23;20016;-87
2023/09/06 14:32:56;;;;;;;0.00;0.00;;;;;;;;;;6201221;23;20091;-88
2023/09/06 14:35:22;;;;;;;0.03;0.03;;;;;;;;;;6202096;23;20015;-87
2023/09/06 14:37:48;;;;;;;0.10;0.10;;;;;;;;;;6201364;23;20077;-87
2023/09/06 14:40:15;;;;;;;0.10;0.10;;;;;;;;;;6199954;23;20146;-87
2023/09/06 14:42:42;;;;;;;0.10;0.10;;;;;;;;;;6201638;23;20023;-87
2023/09/06 14:45:08;;;;;;;0.08;0.08;;;;;;;;;;6201024;23;20509;-87
2023/09/06 14:47:34;;;;;;;0.22;0.22;;;;;;;;;;6200458;23;20566;-86